createdAt,value
2022-10-17T00:00:06.264Z,98381.13
2022-10-17T00:02:33.015Z,98382.41
2022-10-17T00:05:01.835Z,98381.28
2022-10-17T00:07:28.521Z,98381.34
2022-10-17T00:09:57.219Z,98381.66
2022-10-17T00:12:25.741Z,98382.81
2022-10-17T00:14:52.273Z,98380.47
2022-10-17T00:17:18.808Z,98381.19
2022-10-17T00:19:45.390Z,98377.69
2022-10-17T00:22:12.901Z,98372.63
2022-10-17T00:24:45.650Z,98378.03
2022-10-17T00:27:14.344Z,98376.06
2022-10-17T00:29:40.945Z,98379.25
2022-10-17T00:32:07.440Z,98386.69
2022-10-17T00:34:40.499Z,98389.91
2022-10-17T00:37:07.008Z,98386.44
2022-10-17T00:39:33.514Z,98396.94
2022-10-17T00:42:01.759Z,98398.53
2022-10-17T00:44:31.126Z,98394.69
2022-10-17T00:47:04.403Z,98391.56
2022-10-17T00:49:34.456Z,98397.81
2022-10-17T00:52:06.284Z,98400.16
2022-10-17T00:54:35.907Z,98404.06
2022-10-17T00:57:03.134Z,98405.63
2022-10-17T00:59:33.311Z,98399.44
2022-10-17T01:02:15.728Z,98395.59
2022-10-17T01:04:51.092Z,98397.16
2022-10-17T01:07:17.921Z,98401.81
2022-10-17T01:09:46.384Z,98399.50
2022-10-17T01:12:22.260Z,98398.72
2022-10-17T01:14:58.402Z,98400.25
2022-10-17T01:17:49.817Z,98406.50
2022-10-17T01:20:46.099Z,98396.38
2022-10-17T01:23:34.657Z,98394.44
2022-10-17T01:26:18.018Z,98402.59
2022-10-17T01:29:20.195Z,98403.38
2022-10-17T01:32:13.068Z,98402.22
2022-10-17T01:34:47.936Z,98403.00
2022-10-17T01:37:35.569Z,98397.16
2022-10-17T01:40:11.389Z,98395.59
2022-10-17T01:42:42.465Z,98393.63
2022-10-17T01:45:21.379Z,98390.91
2022-10-17T01:47:51.612Z,98391.69
2022-10-17T01:50:30.334Z,98387.00
2022-10-17T01:53:03.991Z,98396.00
2022-10-17T01:55:43.295Z,98391.31
2022-10-17T01:58:36.752Z,98387.78
2022-10-17T02:01:07.721Z,98388.56
2022-10-17T02:03:35.605Z,98388.56
2022-10-17T02:06:04.669Z,98380.00
2022-10-17T02:09:46.820Z,98391.66
2022-10-17T02:12:32.283Z,98385.06
2022-10-17T02:15:19.173Z,98381.56
2022-10-17T02:18:15.853Z,98377.69
2022-10-17T02:20:52.551Z,98389.34
2022-10-17T02:23:37.937Z,98385.44
2022-10-17T02:26:22.611Z,98390.88
2022-10-17T02:29:16.661Z,98384.28
2022-10-17T02:31:56.861Z,98388.94
2022-10-17T02:34:32.293Z,98378.44
2022-10-17T02:37:02.205Z,98391.66
2022-10-17T02:39:30.507Z,98397.09
2022-10-17T02:42:00.913Z,98383.09
2022-10-17T02:44:29.359Z,98400.56
2022-10-17T02:47:03.622Z,98399.03
2022-10-17T02:49:37.877Z,98397.84
2022-10-17T02:52:16.494Z,98398.63
2022-10-17T02:54:51.527Z,98393.53
2022-10-17T02:57:56.053Z,98395.09
2022-10-17T03:00:26.804Z,98395.84
2022-10-17T03:02:54.600Z,98396.25
2022-10-17T03:05:31.294Z,98390.81
2022-10-17T03:07:57.999Z,98404.00
2022-10-17T03:10:24.502Z,98395.81
2022-10-17T03:12:52.819Z,98405.50
2022-10-17T03:15:19.337Z,98401.56
2022-10-17T03:20:24.203Z,98407.38
2022-10-17T03:22:50.725Z,98410.38
2022-10-17T03:25:17.261Z,98413.34
2022-10-17T03:27:43.858Z,98427.59
2022-10-17T03:30:10.967Z,98422.81
2022-10-17T03:32:37.703Z,98436.69
2022-10-17T03:35:14.819Z,98427.69
2022-10-17T03:37:41.599Z,98437.28
2022-10-17T03:40:08.611Z,98432.59
2022-10-17T03:42:35.132Z,98433.72
2022-10-17T03:45:01.898Z,98435.25
2022-10-17T03:47:29.351Z,98436.41
2022-10-17T03:49:56.189Z,98437.59
2022-10-17T03:52:22.860Z,98438.31
2022-10-17T03:54:50.700Z,98437.22
2022-10-17T03:57:18.486Z,98439.59
2022-10-17T03:59:45.174Z,98435.75
2022-10-17T04:02:11.644Z,98445.94
2022-10-17T04:04:38.298Z,98446.38
2022-10-17T04:07:04.792Z,98447.25
2022-10-17T04:09:31.313Z,98457.34
2022-10-17T04:11:59.696Z,98453.88
2022-10-17T04:14:26.352Z,98439.97
2022-10-17T04:16:53.610Z,98448.94
2022-10-17T04:19:22.073Z,98446.25
2022-10-17T04:21:48.614Z,98445.13
2022-10-17T04:24:15.442Z,98454.88
2022-10-17T04:26:43.673Z,98458.75
2022-10-17T04:29:11.086Z,98454.13
2022-10-17T04:31:37.899Z,98460.47
2022-10-17T04:34:04.620Z,98467.53
2022-10-17T04:36:31.082Z,98464.88
2022-10-17T04:38:57.618Z,98466.50
2022-10-17T04:41:31.855Z,98469.28
2022-10-17T04:43:58.382Z,98463.13
2022-10-17T04:46:24.881Z,98470.91
2022-10-17T04:48:51.509Z,98468.59
2022-10-17T04:51:20.741Z,98471.69
2022-10-17T04:53:51.035Z,98476.72
2022-10-17T04:56:22.138Z,98483.28
2022-10-17T04:58:49.264Z,98478.22
2022-10-17T05:01:23.041Z,98482.91
2022-10-17T05:03:51.863Z,98484.44
2022-10-17T05:06:23.941Z,98479.41
2022-10-17T05:08:50.911Z,98482.47
2022-10-17T05:11:20.918Z,98489.13
2022-10-17T05:14:01.147Z,98492.66
2022-10-17T05:16:30.407Z,98484.09
2022-10-17T05:18:59.767Z,98486.38
2022-10-17T05:21:27.627Z,98482.13
2022-10-17T05:23:54.342Z,98487.56
2022-10-17T05:26:21.789Z,98483.28
2022-10-17T05:28:48.380Z,98506.97
2022-10-17T05:31:15.308Z,98497.66
2022-10-17T05:33:41.865Z,98496.47
2022-10-17T05:36:08.940Z,98499.53
2022-10-17T05:38:36.136Z,98506.50
2022-10-17T05:41:05.795Z,98504.16
2022-10-17T05:43:33.176Z,98515.41
2022-10-17T05:46:05.356Z,98517.31
2022-10-17T05:48:32.134Z,98508.00
2022-10-17T05:51:00.495Z,98518.88
2022-10-17T05:53:33.039Z,98520.75
2022-10-17T05:56:01.251Z,98517.22
2022-10-17T06:01:17.053Z,98521.84
2022-10-17T06:03:45.889Z,98534.31
2022-10-17T06:06:14.470Z,98534.31
2022-10-17T06:08:41.229Z,98542.97
2022-10-17T06:11:10.161Z,98545.56
2022-10-17T06:13:38.076Z,98546.44
2022-10-17T06:16:04.907Z,98544.25
2022-10-17T06:18:31.425Z,98546.72
2022-10-17T06:21:12.427Z,98549.84
2022-10-17T06:23:39.288Z,98559.59
2022-10-17T06:26:07.024Z,98567.75
2022-10-17T06:28:36.141Z,98561.03
2022-10-17T06:31:11.468Z,98568.31
2022-10-17T06:33:40.293Z,98561.97
2022-10-17T06:36:08.165Z,98565.03
2022-10-17T06:38:35.439Z,98571.13
2022-10-17T06:41:13.636Z,98571.13
2022-10-17T06:43:43.336Z,98582.09
2022-10-17T06:46:10.115Z,98580.97
2022-10-17T06:48:43.241Z,98580.50
2022-10-17T06:51:11.373Z,98583.53
2022-10-17T06:53:40.430Z,98589.91
2022-10-17T06:56:08.685Z,98598.44
2022-10-17T06:58:39.109Z,98593.63
2022-10-17T07:01:17.706Z,98592.63
2022-10-17T07:03:48.015Z,98601.28
2022-10-17T07:06:18.051Z,98602.25
2022-10-17T07:08:45.651Z,98602.16
2022-10-17T07:11:13.871Z,98607.34
2022-10-17T07:13:40.654Z,98601.56
2022-10-17T07:16:18.129Z,98602.78
2022-10-17T07:18:44.719Z,98600.44
2022-10-17T07:21:11.586Z,98603.06
2022-10-17T07:23:38.778Z,98594.78
2022-10-17T07:26:08.510Z,98607.25
2022-10-17T07:28:36.896Z,98602.53
2022-10-17T07:31:05.986Z,98611.91
2022-10-17T07:33:32.871Z,98613.50
2022-10-17T07:36:00.752Z,98619.97
2022-10-17T07:38:28.650Z,98624.38
2022-10-17T07:40:56.966Z,98620.41
2022-10-17T07:43:24.820Z,98623.84
2022-10-17T07:45:58.047Z,98622.16
2022-10-17T07:48:25.442Z,98633.53
2022-10-17T07:50:52.122Z,98633.66
2022-10-17T07:53:19.534Z,98636.69
2022-10-17T07:55:46.535Z,98635.25
2022-10-17T07:58:14.099Z,98647.44
2022-10-17T08:00:42.668Z,98653.22
2022-10-17T08:03:10.937Z,98645.41
2022-10-17T08:05:37.456Z,98651.72
2022-10-17T08:08:06.302Z,98651.34
2022-10-17T08:10:37.181Z,98646.81
2022-10-17T08:13:03.692Z,98644.81
2022-10-17T08:15:32.157Z,98648.69
2022-10-17T08:17:59.370Z,98637.03
2022-10-17T08:20:26.453Z,98642.31
2022-10-17T08:22:56.502Z,98646.09
2022-10-17T08:25:23.487Z,98644.59
2022-10-17T08:27:50.215Z,98657.16
2022-10-17T08:30:17.261Z,98653.34
2022-10-17T08:32:43.975Z,98658.19
2022-10-17T08:35:14.698Z,98667.94
2022-10-17T08:37:43.153Z,98659.47
2022-10-17T08:40:17.562Z,98660.31
2022-10-17T08:43:13.480Z,98661.63
2022-10-17T08:45:54.736Z,98657.19
2022-10-17T08:48:30.293Z,98660.44
2022-10-17T08:51:17.306Z,98665.53
2022-10-17T08:53:54.772Z,98681.47
2022-10-17T08:56:44.190Z,98673.94
2022-10-17T08:59:18.349Z,98661.31
2022-10-17T09:01:51.046Z,98655.81
2022-10-17T09:04:27.554Z,98658.47
2022-10-17T09:07:05.301Z,98655.66
2022-10-17T09:09:44.170Z,98664.84
2022-10-17T09:12:16.780Z,98668.66
2022-10-17T09:15:24.524Z,98667.72
2022-10-17T09:18:03.236Z,98659.19
2022-10-17T09:20:42.387Z,98661.50
2022-10-17T09:23:18.052Z,98659.69
2022-10-17T09:28:20.298Z,98665.63
2022-10-17T09:30:54.356Z,98656.56
2022-10-17T09:33:35.973Z,98685.81
2022-10-17T09:36:29.479Z,98659.13
2022-10-17T09:39:12.999Z,98667.91
2022-10-17T09:41:47.621Z,98680.09
2022-10-17T09:44:21.954Z,98672.81
2022-10-17T09:47:00.328Z,98684.84
2022-10-17T09:49:33.168Z,98671.41
2022-10-17T09:52:03.177Z,98678.94
2022-10-17T09:54:41.456Z,98668.34
2022-10-17T09:57:10.512Z,98680.81
2022-10-17T09:59:41.145Z,98673.59
2022-10-17T10:02:27.750Z,98681.06
2022-10-17T10:05:04.548Z,98691.88
2022-10-17T10:07:37.796Z,98680.91
2022-10-17T10:10:22.830Z,98690.19
2022-10-17T10:13:16.310Z,98686.81
2022-10-17T10:15:45.764Z,98687.97
2022-10-17T10:18:36.054Z,98689.63
2022-10-17T10:21:13.519Z,98686.47
2022-10-17T10:23:47.186Z,98684.63
2022-10-17T10:26:25.978Z,98682.09
2022-10-17T10:29:00.852Z,98678.94
2022-10-17T10:31:32.036Z,98674.16
2022-10-17T10:34:07.903Z,98688.09
2022-10-17T10:37:05.977Z,98681.38
2022-10-17T10:39:43.829Z,98684.69
2022-10-17T10:42:28.619Z,98684.25
2022-10-17T10:45:00.043Z,98675.16
2022-10-17T10:47:32.442Z,98689.13
2022-10-17T10:50:25.683Z,98683.81
2022-10-17T10:56:51.288Z,98686.06
2022-10-17T10:59:36.467Z,98689.91
2022-10-17T11:02:12.844Z,98685.63
2022-10-17T11:05:30.472Z,98696.72
2022-10-17T11:08:24.439Z,98696.78
2022-10-17T11:11:23.874Z,98699.34
2022-10-17T11:14:02.409Z,98694.47
2022-10-17T11:16:28.930Z,98696.00
2022-10-17T11:19:06.488Z,98705.22
2022-10-17T11:21:48.809Z,98695.75
2022-10-17T11:24:22.915Z,98693.94
2022-10-17T11:26:56.736Z,98692.78
2022-10-17T11:29:30.471Z,98690.03
2022-10-17T11:32:11.688Z,98691.00
2022-10-17T11:34:48.130Z,98690.44
2022-10-17T11:37:23.196Z,98688.59
2022-10-17T11:40:31.211Z,98686.22
2022-10-17T11:43:02.108Z,98683.34
2022-10-17T11:45:39.164Z,98684.38
2022-10-17T11:48:13.329Z,98681.06
2022-10-17T11:53:44.964Z,98684.03
2022-10-17T11:56:12.886Z,98674.34
2022-10-17T11:58:53.369Z,98678.81
2022-10-17T12:01:36.366Z,98678.22
2022-10-17T12:04:21.019Z,98676.22
2022-10-17T12:07:11.229Z,98681.94
2022-10-17T12:09:52.451Z,98679.50
2022-10-17T12:12:33.413Z,98671.25
2022-10-17T12:15:11.802Z,98678.06
2022-10-17T12:17:41.170Z,98667.63
2022-10-17T12:20:37.565Z,98666.63
2022-10-17T12:23:04.230Z,98668.13
2022-10-17T12:28:17.709Z,98671.91
2022-10-17T12:31:06.227Z,98676.78
2022-10-17T12:33:50.111Z,98678.88
2022-10-17T12:36:22.617Z,98682.31
2022-10-17T12:38:50.552Z,98678.16
2022-10-17T12:41:39.369Z,98679.88
2022-10-17T12:47:17.787Z,98679.72
2022-10-17T12:49:53.113Z,98670.31
2022-10-17T12:52:26.817Z,98674.75
2022-10-17T12:55:13.418Z,98671.53
2022-10-17T12:57:51.605Z,98668.88
2022-10-17T13:03:22.068Z,98668.44
2022-10-17T13:05:57.607Z,98668.09
2022-10-17T13:08:32.047Z,98667.44
2022-10-17T13:10:58.761Z,98663.44
2022-10-17T13:13:39.402Z,98668.34
2022-10-17T13:16:08.981Z,98660.47
2022-10-17T13:18:35.700Z,98670.50
2022-10-17T13:21:11.477Z,98661.72
2022-10-17T13:23:38.202Z,98659.31
2022-10-17T13:26:06.035Z,98658.53
2022-10-17T13:28:37.072Z,98653.91
2022-10-17T13:31:05.746Z,98656.69
2022-10-17T13:33:40.034Z,98654.78
2022-10-17T13:36:17.599Z,98648.22
2022-10-17T13:38:48.757Z,98651.59
2022-10-17T13:41:36.178Z,98653.28
2022-10-17T13:44:11.681Z,98649.50
2022-10-17T13:46:40.037Z,98651.56
2022-10-17T13:49:35.030Z,98639.56
2022-10-17T13:52:03.946Z,98643.13
2022-10-17T13:54:35.412Z,98648.03
2022-10-17T13:57:05.180Z,98643.13
2022-10-17T13:59:40.014Z,98636.31
2022-10-17T14:02:15.573Z,98644.03
2022-10-17T14:05:11.837Z,98649.13
2022-10-17T14:08:05.858Z,98643.28
2022-10-17T14:10:27.635Z,98644.66
2022-10-17T14:12:56.732Z,98644.78
2022-10-17T14:15:27.831Z,98637.56
2022-10-17T14:17:59.156Z,98640.47
2022-10-17T14:21:19.482Z,98633.38
2022-10-17T14:23:41.174Z,98640.94
2022-10-17T14:26:15.142Z,98636.34
2022-10-17T14:28:45.330Z,98633.22
2022-10-17T14:31:17.778Z,98631.22
2022-10-17T14:33:51.060Z,98646.78
2022-10-17T14:36:23.656Z,98640.28
2022-10-17T14:38:52.209Z,98629.44
2022-10-17T14:44:26.104Z,98632.13
2022-10-17T14:46:57.853Z,98642.13
2022-10-17T14:49:36.276Z,98636.28
2022-10-17T14:52:18.972Z,98638.59
2022-10-17T14:54:54.965Z,98639.22
2022-10-17T14:57:24.225Z,98639.56
2022-10-17T14:59:55.445Z,98648.84
2022-10-17T15:02:29.886Z,98644.41
2022-10-17T15:05:00.664Z,98638.38
2022-10-17T15:07:29.595Z,98643.63
2022-10-17T15:09:56.328Z,98645.00
2022-10-17T15:12:25.625Z,98641.94
2022-10-17T15:14:53.033Z,98644.88
2022-10-17T15:17:26.326Z,98644.06
2022-10-17T15:19:53.200Z,98650.06
2022-10-17T15:22:19.768Z,98648.97
2022-10-17T15:24:50.829Z,98641.97
2022-10-17T15:27:24.897Z,98633.72
2022-10-17T15:29:51.792Z,98650.03
2022-10-17T15:32:20.427Z,98646.59
2022-10-17T15:34:46.933Z,98648.38
2022-10-17T15:37:21.220Z,98648.28
2022-10-17T15:39:54.530Z,98640.78
2022-10-17T15:42:23.410Z,98646.31
2022-10-17T15:44:50.378Z,98650.75
2022-10-17T15:47:37.612Z,98649.91
2022-10-17T15:50:06.074Z,98650.84
2022-10-17T15:52:32.940Z,98653.28
2022-10-17T15:55:04.322Z,98656.16
2022-10-17T15:57:36.343Z,98659.50
2022-10-17T16:00:04.786Z,98660.69
2022-10-17T16:02:31.281Z,98658.25
2022-10-17T16:04:57.775Z,98656.31
2022-10-17T16:07:26.527Z,98656.91
2022-10-17T16:09:53.226Z,98668.16
2022-10-17T16:12:30.537Z,98662.22
2022-10-17T16:14:57.396Z,98661.31
2022-10-17T16:17:23.909Z,98663.06
2022-10-17T16:19:56.945Z,98668.28
2022-10-17T16:22:36.687Z,98668.34
2022-10-17T16:25:17.177Z,98671.91
2022-10-17T16:27:47.788Z,98669.56
2022-10-17T16:30:14.981Z,98664.09
2022-10-17T16:32:43.855Z,98668.44
2022-10-17T16:35:20.746Z,98674.63
2022-10-17T16:37:57.886Z,98672.50
2022-10-17T16:40:25.711Z,98676.28
2022-10-17T16:42:52.193Z,98678.78
2022-10-17T16:45:21.676Z,98680.94
2022-10-17T16:47:49.072Z,98683.41
2022-10-17T16:50:16.146Z,98689.78
2022-10-17T16:52:44.937Z,98696.16
2022-10-17T16:55:11.527Z,98693.91
2022-10-17T16:57:38.414Z,98699.47
2022-10-17T17:00:08.484Z,98698.38
2022-10-17T17:02:35.141Z,98706.63
2022-10-17T17:05:01.747Z,98711.41
2022-10-17T17:07:29.855Z,98713.78
2022-10-17T17:09:56.730Z,98717.00
2022-10-17T17:12:25.661Z,98723.28
2022-10-17T17:14:54.433Z,98722.16
2022-10-17T17:17:37.169Z,98724.16
2022-10-17T17:20:07.929Z,98735.91
2022-10-17T17:22:37.759Z,98737.50
2022-10-17T17:25:07.836Z,98748.84
2022-10-17T17:27:34.536Z,98752.03
2022-10-17T17:30:01.151Z,98754.81
2022-10-17T17:32:27.654Z,98762.25
2022-10-17T17:34:54.614Z,98765.78
2022-10-17T17:37:23.002Z,98775.94
2022-10-17T17:39:49.514Z,98768.88
2022-10-17T17:42:17.838Z,98770.09
2022-10-17T17:44:45.079Z,98774.41
2022-10-17T17:47:11.606Z,98769.75
2022-10-17T17:49:42.693Z,98778.34
2022-10-17T17:52:09.208Z,98774.03
2022-10-17T17:54:38.602Z,98776.78
2022-10-17T17:57:09.191Z,98776.00
2022-10-17T17:59:35.719Z,98789.31
2022-10-17T18:02:06.318Z,98790.09
2022-10-17T18:04:35.234Z,98793.59
2022-10-17T18:07:01.816Z,98800.22
2022-10-17T18:09:28.272Z,98799.44
2022-10-17T18:12:00.131Z,98793.56
2022-10-17T18:14:30.518Z,98788.47
2022-10-17T18:16:56.966Z,98796.25
2022-10-17T18:19:28.763Z,98787.28
2022-10-17T18:21:55.330Z,98797.03
2022-10-17T18:24:22.042Z,98786.88
2022-10-17T18:26:59.046Z,98793.09
2022-10-17T18:29:26.827Z,98784.50
2022-10-17T18:31:53.630Z,98793.06
2022-10-17T18:34:20.363Z,98788.38
2022-10-17T18:36:47.098Z,98790.72
2022-10-17T18:39:17.217Z,98799.28
2022-10-17T18:41:43.876Z,98797.34
2022-10-17T18:44:12.628Z,98798.50
2022-10-17T18:46:42.788Z,98799.25
2022-10-17T18:49:11.203Z,98796.13
2022-10-17T18:51:37.742Z,98796.88
2022-10-17T18:54:04.308Z,98803.91
2022-10-17T18:56:34.453Z,98806.56
2022-10-17T18:59:01.229Z,98799.16
2022-10-17T19:01:28.198Z,98801.84
2022-10-17T19:03:59.348Z,98801.41
2022-10-17T19:06:28.369Z,98805.63
2022-10-17T19:08:55.263Z,98802.47
2022-10-17T19:11:26.328Z,98793.44
2022-10-17T19:13:54.025Z,98810.53
2022-10-17T19:16:23.991Z,98809.72
2022-10-17T19:18:52.493Z,98802.66
2022-10-17T19:21:22.121Z,98815.09
2022-10-17T19:23:51.316Z,98804.97
2022-10-17T19:26:20.395Z,98810.38
2022-10-17T19:28:47.801Z,98811.91
2022-10-17T19:31:17.001Z,98808.81
2022-10-17T19:33:52.064Z,98799.44
2022-10-17T19:36:25.403Z,98800.53
2022-10-17T19:39:01.214Z,98802.13
2022-10-17T19:41:28.339Z,98807.91
2022-10-17T19:43:54.921Z,98811.00
2022-10-17T19:46:25.851Z,98822.97
2022-10-17T19:48:53.208Z,98828.41
2022-10-17T19:51:24.430Z,98821.75
2022-10-17T19:53:52.265Z,98828.34
2022-10-17T19:56:20.631Z,98832.22
2022-10-17T19:58:48.774Z,98835.75
2022-10-17T20:01:20.736Z,98831.84
2022-10-17T20:03:47.511Z,98825.94
2022-10-17T20:06:15.006Z,98825.13
2022-10-17T20:08:52.506Z,98818.84
2022-10-17T20:11:25.133Z,98824.66
2022-10-17T20:13:54.720Z,98821.91
2022-10-17T20:16:26.355Z,98826.16
2022-10-17T20:18:56.026Z,98822.97
2022-10-17T20:21:27.221Z,98828.03
2022-10-17T20:23:56.237Z,98831.13
2022-10-17T20:26:37.165Z,98838.84
2022-10-17T20:29:11.199Z,98841.19
2022-10-17T20:31:42.824Z,98838.94
2022-10-17T20:34:14.933Z,98839.69
2022-10-17T20:36:41.925Z,98840.38
2022-10-17T20:39:10.960Z,98844.28
2022-10-17T20:41:39.326Z,98840.34
2022-10-17T20:44:06.995Z,98846.09
2022-10-17T20:46:41.596Z,98849.19
2022-10-17T20:49:15.041Z,98854.19
2022-10-17T20:51:41.876Z,98860.72
2022-10-17T20:54:09.053Z,98860.72
2022-10-17T20:56:37.903Z,98871.91
2022-10-17T20:59:12.213Z,98872.25
2022-10-17T21:01:50.246Z,98870.66
2022-10-17T21:04:44.610Z,98873.38
2022-10-17T21:07:09.277Z,98875.28
2022-10-17T21:09:37.718Z,98874.44
2022-10-17T21:12:05.387Z,98881.00
2022-10-17T21:14:33.532Z,98874.34
2022-10-17T21:17:04.691Z,98870.78
2022-10-17T21:19:32.162Z,98871.91
2022-10-17T21:21:58.877Z,98872.69
2022-10-17T21:24:25.427Z,98869.56
2022-10-17T21:26:55.620Z,98864.16
2022-10-17T21:29:23.592Z,98872.75
2022-10-17T21:31:50.983Z,98874.28
2022-10-17T21:34:21.190Z,98872.78
2022-10-17T21:36:50.294Z,98868.16
2022-10-17T21:39:17.261Z,98869.00
2022-10-17T21:41:44.939Z,98870.66
2022-10-17T21:44:17.486Z,98870.00
2022-10-17T21:46:44.552Z,98871.25
2022-10-17T21:49:13.086Z,98867.00
2022-10-17T21:51:40.468Z,98859.69
2022-10-17T21:54:07.722Z,98851.19
2022-10-17T21:56:35.373Z,98856.66
2022-10-17T21:59:03.121Z,98848.53
2022-10-17T22:01:39.297Z,98849.72
2022-10-17T22:04:10.201Z,98857.44
2022-10-17T22:06:40.788Z,98853.19
2022-10-17T22:09:21.788Z,98850.09
2022-10-17T22:11:51.065Z,98853.53
2022-10-17T22:14:19.661Z,98847.72
2022-10-17T22:16:49.170Z,98847.69
2022-10-17T22:19:18.750Z,98850.03
2022-10-17T22:21:45.527Z,98848.81
2022-10-17T22:24:16.507Z,98855.06
2022-10-17T22:26:43.185Z,98853.06
2022-10-17T22:29:10.207Z,98848.38
2022-10-17T22:31:49.181Z,98850.31
2022-10-17T22:34:17.953Z,98846.41
2022-10-17T22:36:44.717Z,98841.66
2022-10-17T22:39:13.735Z,98837.38
2022-10-17T22:41:40.437Z,98842.81
2022-10-17T22:44:07.058Z,98842.41
2022-10-17T22:46:36.114Z,98842.81
2022-10-17T22:49:02.822Z,98842.41
2022-10-17T22:51:29.654Z,98835.03
2022-10-17T22:53:58.284Z,98829.59
2022-10-17T22:56:24.868Z,98821.44
2022-10-17T22:58:51.988Z,98820.28
2022-10-17T23:01:24.886Z,98821.06
2022-10-17T23:03:52.574Z,98821.81
2022-10-17T23:06:19.765Z,98822.56
2022-10-17T23:08:46.845Z,98817.94
2022-10-17T23:11:13.530Z,98811.69
2022-10-17T23:13:41.035Z,98807.81
2022-10-17T23:16:08.659Z,98815.53
2022-10-17T23:18:36.637Z,98826.03
2022-10-17T23:21:03.120Z,98829.91
2022-10-17T23:23:31.504Z,98823.69
2022-10-17T23:26:07.511Z,98840.78
2022-10-17T23:28:35.784Z,98832.63
2022-10-17T23:31:21.587Z,98821.75
2022-10-17T23:33:49.861Z,98828.75
2022-10-17T23:36:19.205Z,98829.13
2022-10-17T23:38:48.359Z,98821.75
2022-10-17T23:41:16.029Z,98827.63
2022-10-17T23:43:43.364Z,98831.09
2022-10-17T23:46:10.744Z,98825.28
2022-10-17T23:48:38.618Z,98820.56
2022-10-17T23:51:06.061Z,98823.97
2022-10-17T23:53:32.602Z,98829.44
2022-10-17T23:55:59.271Z,98829.78
2022-10-17T23:58:25.793Z,98823.22
